Time;durP1;ratioP1;P1;durP2;ratioP2;P2;SDS_P1;SDS_P2;PMS_P1;PMS_P2;Temp;Humidity;BMP_temperature;BMP_pressure;BME280_temperature;BME280_humidity;BME280_pressure;Samples;Min_cycle;Max_cycle;Signal;HPM_P1;HPM_P2
2023/10/17 00:01:18;;;;;;;1.30;0.90;;;;;;;17.64;52.32;98291.34;105241;1261;61382;-45
2023/10/17 00:03:45;;;;;;;0.90;0.80;;;;;;;17.64;52.36;98291.73;105223;1265;74422;-45
2023/10/17 00:06:16;;;;;;;1.50;1.00;;;;;;;17.63;52.37;98291.23;105241;1260;66324;-44
2023/10/17 00:08:50;;;;;;;1.30;0.90;;;;;;;17.63;52.31;98293.33;105131;1260;72421;-44
2023/10/17 00:11:17;;;;;;;0.70;0.70;;;;;;;17.63;52.37;98296.73;104898;1260;61139;-44
2023/10/17 00:13:59;;;;;;;1.50;0.90;;;;;;;17.63;52.37;98297.81;104936;1265;61222;-45
2023/10/17 00:16:29;;;;;;;1.20;1.10;;;;;;;17.62;52.25;98296.23;104996;1261;73556;-45
2023/10/17 00:18:57;;;;;;;0.80;0.80;;;;;;;17.62;52.36;98297.61;105049;1261;66156;-44
2023/10/17 00:21:25;;;;;;;1.10;0.90;;;;;;;17.62;52.31;98294.51;105210;1260;72997;-45
2023/10/17 00:23:52;;;;;;;1.20;1.00;;;;;;;17.61;52.30;98295.59;105234;1265;61331;-44
2023/10/17 00:26:19;;;;;;;0.90;0.70;;;;;;;17.61;52.30;98299.29;105242;1260;61331;-44
2023/10/17 00:28:48;;;;;;;1.60;1.00;;;;;;;17.62;52.38;98293.42;105238;1267;75014;-44
2023/10/17 00:31:16;;;;;;;1.10;1.00;;;;;;;17.61;52.35;98294.48;105214;1265;65904;-44
2023/10/17 00:33:48;;;;;;;1.00;0.80;;;;;;;17.61;52.29;98296.66;105289;1260;72641;-44
2023/10/17 00:36:16;;;;;;;0.80;0.80;;;;;;;17.61;52.28;98299.58;105148;1264;61284;-44
2023/10/17 00:38:43;;;;;;;1.10;0.90;;;;;;;17.60;52.25;98302.73;105147;1261;61249;-44
2023/10/17 00:41:18;;;;;;;0.80;0.80;;;;;;;17.60;52.23;98304.20;104942;1265;74441;-44
2023/10/17 00:43:45;;;;;;;;;;;;;;;17.60;52.24;98304.58;105179;1265;66130;-44
2023/10/17 00:46:12;;;;;;;1.20;1.00;;;;;;;17.59;52.26;98305.70;105252;1260;72447;-44
2023/10/17 00:48:56;;;;;;;1.60;1.10;;;;;;;17.59;52.32;98310.95;106171;1267;61938;-45
2023/10/17 00:51:23;;;;;;;0.90;0.90;;;;;;;17.58;52.30;98310.33;105154;1261;61331;-44
2023/10/17 00:53:50;;;;;;;1.00;0.90;;;;;;;17.59;52.31;98313.29;105239;1267;74604;-45
2023/10/17 00:56:17;;;;;;;1.40;1.10;;;;;;;17.58;52.32;98311.71;105187;1265;65953;-43
2023/10/17 00:58:43;;;;;;;1.00;0.90;;;;;;;17.59;52.30;98313.04;105294;1261;73105;-44
2023/10/17 01:01:14;;;;;;;1.10;1.00;;;;;;;17.58;52.21;98312.73;105223;1265;61351;-46
2023/10/17 01:03:44;;;;;;;1.10;0.90;;;;;;;17.58;52.22;98312.85;105265;1265;61277;-46
2023/10/17 01:08:53;;;;;;;1.50;1.00;;;;;;;17.58;52.20;98319.30;105227;1265;66128;-45
2023/10/17 01:11:20;;;;;;;1.50;1.10;;;;;;;17.57;52.22;98318.88;105149;1264;72512;-45
2023/10/17 01:13:53;;;;;;;1.30;1.00;;;;;;;17.58;52.19;98317.89;105277;1267;61343;-44
2023/10/17 01:16:20;;;;;;;0.90;0.80;;;;;;;17.57;52.18;98323.58;105148;1261;61256;-44
2023/10/17 01:18:47;;;;;;;1.20;1.00;;;;;;;17.57;52.18;98326.75;105034;1264;74400;-45
2023/10/17 01:21:15;;;;;;;1.20;1.00;;;;;;;17.56;52.23;98328.66;104976;1265;66146;-45
2023/10/17 01:23:42;;;;;;;2.60;0.90;;;;;;;17.56;52.20;98325.80;105015;1260;71311;-45
2023/10/17 01:26:09;;;;;;;2.20;1.10;;;;;;;17.56;52.24;98327.27;105227;1265;61271;-44
2023/10/17 01:28:35;;;;;;;2.70;0.90;;;;;;;17.56;52.15;98324.09;105241;1260;61261;-45
2023/10/17 01:31:03;;;;;;;1.00;0.90;;;;;;;17.56;52.15;98325.33;105196;1261;74491;-45
2023/10/17 01:33:30;;;;;;;1.50;0.90;;;;;;;17.56;52.18;98326.09;105007;1265;65679;-45
2023/10/17 01:35:58;;;;;;;1.50;1.00;;;;;;;17.55;52.15;98331.25;105225;1260;73150;-44
2023/10/17 01:38:28;;;;;;;1.80;1.00;;;;;;;17.55;52.07;98334.50;105259;1267;61254;-45
2023/10/17 01:40:59;;;;;;;1.70;0.90;;;;;;;17.55;52.16;98327.75;105192;1262;61251;-45
2023/10/17 01:43:30;;;;;;;0.90;0.80;;;;;;;17.55;52.12;98331.08;105245;1261;74625;-45
2023/10/17 01:45:57;;;;;;;0.90;0.80;;;;;;;17.54;52.10;98329.58;105205;1265;65891;-45
2023/10/17 01:48:25;;;;;;;1.20;0.90;;;;;;;17.54;52.16;98328.88;105130;1260;72432;-46
2023/10/17 01:50:53;;;;;;;1.00;0.90;;;;;;;17.54;52.13;98333.91;105062;1261;61356;-45
2023/10/17 01:53:20;;;;;;;1.20;0.80;;;;;;;17.54;52.07;98337.88;105024;1260;61355;-44
2023/10/17 01:56:02;;;;;;;1.20;0.90;;;;;;;17.54;52.09;98336.52;105106;1261;74313;-44
2023/10/17 01:58:30;;;;;;;2.10;0.80;;;;;;;17.54;52.08;98338.30;105212;1260;66228;-44
2023/10/17 02:00:57;;;;;;;1.10;1.00;;;;;;;17.54;51.98;98338.30;105109;1261;72641;-44
2023/10/17 02:03:24;;;;;;;1.20;1.00;;;;;;;17.54;52.06;98336.30;105061;1261;61244;-45
2023/10/17 02:05:51;;;;;;;0.90;0.80;;;;;;;17.53;52.08;98339.29;104914;1260;61357;-45
2023/10/17 02:08:21;;;;;;;1.10;0.90;;;;;;;17.53;52.03;98338.81;104982;1263;75728;-45
2023/10/17 02:10:49;;;;;;;1.20;0.90;;;;;;;17.53;52.06;98340.77;105078;1264;66260;-45
2023/10/17 02:13:17;;;;;;;1.10;1.00;;;;;;;17.52;52.04;98341.96;105233;1261;72376;-44
2023/10/17 02:15:44;;;;;;;1.10;0.90;;;;;;;17.52;52.02;98341.95;104973;1265;61302;-45
2023/10/17 02:18:12;;;;;;;1.20;1.00;;;;;;;17.52;52.05;98346.04;105019;1260;61408;-44
2023/10/17 02:20:48;;;;;;;1.00;0.90;;;;;;;17.51;52.01;98342.09;104971;1261;74616;-47
2023/10/17 02:23:25;;;;;;;1.40;1.00;;;;;;;17.51;51.99;98346.56;105065;1264;66124;-46
2023/10/17 02:25:54;;;;;;;1.00;0.90;;;;;;;17.51;51.98;98350.09;104933;1261;72413;-45
2023/10/17 02:28:22;;;;;;;1.10;0.90;;;;;;;17.51;52.01;98350.41;105179;1265;61274;-45
2023/10/17 02:30:49;;;;;;;0.90;0.80;;;;;;;17.51;51.97;98350.08;105229;1261;61349;-45
2023/10/17 02:33:19;;;;;;;1.40;0.90;;;;;;;17.50;51.99;98348.95;105210;1261;74635;-45
2023/10/17 02:35:57;;;;;;;0.80;0.80;;;;;;;17.51;51.96;98353.34;105120;1267;65846;-45
2023/10/17 02:38:25;;;;;;;0.80;0.80;;;;;;;17.50;51.96;98354.91;104963;1261;72616;-45
2023/10/17 02:40:53;;;;;;;1.10;1.00;;;;;;;17.50;51.94;98358.55;104972;1265;61241;-45
2023/10/17 02:43:20;;;;;;;1.20;0.90;;;;;;;17.50;51.97;98361.02;105039;1261;61356;-45
2023/10/17 02:45:46;;;;;;;1.40;1.00;;;;;;;17.50;51.92;98362.79;105107;1261;74386;-45
2023/10/17 02:48:29;;;;;;;1.00;0.90;;;;;;;17.50;51.96;98361.71;105290;1264;66058;-45
2023/10/17 02:50:59;;;;;;;1.30;0.90;;;;;;;17.49;51.89;98363.78;105173;1262;71376;-45
2023/10/17 02:53:34;;;;;;;1.60;1.10;;;;;;;17.49;51.96;98361.85;105235;1267;61351;-45
2023/10/17 02:56:19;;;;;;;1.10;1.00;;;;;;;17.48;51.99;98367.06;105094;1260;61356;-45
2023/10/17 02:58:50;;;;;;;1.10;1.00;;;;;;;17.48;51.94;98372.39;104873;1267;75108;-45
2023/10/17 03:01:17;;;;;;;1.50;1.00;;;;;;;17.48;51.99;98373.63;105726;1264;65797;-45
2023/10/17 03:03:51;;;;;;;1.50;1.00;;;;;;;17.47;51.94;98375.39;105247;1260;72417;-45
2023/10/17 03:06:19;;;;;;;1.20;1.00;;;;;;;17.47;51.87;98377.23;105220;1265;61339;-44
2023/10/17 03:08:51;;;;;;;2.00;1.00;;;;;;;17.47;51.97;98377.55;105156;1261;61238;-45
2023/10/17 03:11:26;;;;;;;0.80;0.80;;;;;;;17.47;51.92;98381.80;105138;1264;74758;-44
2023/10/17 03:13:53;;;;;;;1.00;0.90;;;;;;;17.47;51.88;98382.17;105235;1265;65859;-45
2023/10/17 03:16:25;;;;;;;1.10;0.90;;;;;;;17.47;51.94;98383.25;105225;1261;72396;-44
2023/10/17 03:18:52;;;;;;;1.60;1.20;;;;;;;17.46;51.91;98383.77;105158;1267;61316;-44
2023/10/17 03:21:29;;;;;;;1.00;0.90;;;;;;;17.46;51.86;98384.63;105148;1261;61315;-45
2023/10/17 03:24:00;;;;;;;2.10;1.10;;;;;;;17.46;51.89;98382.14;105161;1260;74600;-45
2023/10/17 03:26:38;;;;;;;1.30;1.00;;;;;;;17.46;51.88;98382.14;105764;1260;65798;-44
2023/10/17 03:29:13;;;;;;;1.30;1.10;;;;;;;17.46;51.86;98383.67;104965;1261;72447;-44
2023/10/17 03:31:45;;;;;;;1.20;1.00;;;;;;;17.46;51.85;98385.55;105396;1264;61283;-44
2023/10/17 03:34:12;;;;;;;1.80;1.00;;;;;;;17.45;51.87;98385.90;106042;1260;61302;-46
2023/10/17 03:39:27;;;;;;;1.20;0.90;;;;;;;17.46;51.89;98387.52;105264;1265;63939;-46
2023/10/17 03:41:56;;;;;;;1.20;1.10;;;;;;;17.46;51.79;98389.15;105215;1260;73100;-46
2023/10/17 03:44:39;;;;;;;1.40;1.00;;;;;;;17.44;51.86;98391.36;105214;1265;61247;-45
2023/10/17 03:47:06;;;;;;;1.30;1.10;;;;;;;17.45;51.79;98396.34;105175;1261;61361;-45
2023/10/17 03:49:38;;;;;;;1.30;1.20;;;;;;;17.45;51.80;98392.38;105253;1265;74626;-45
2023/10/17 03:52:06;;;;;;;1.10;0.90;;;;;;;17.45;51.84;98392.55;105270;1264;64518;-44
2023/10/17 03:54:39;;;;;;;2.20;1.30;;;;;;;17.45;51.80;98390.97;105207;1261;72710;-44
2023/10/17 03:57:15;;;;;;;1.30;1.00;;;;;;;17.44;51.72;98393.53;105235;1264;61162;-44
2023/10/17 03:59:52;;;;;;;1.20;1.00;;;;;;;17.44;51.75;98394.36;105158;1260;61369;-46
2023/10/17 04:02:20;;;;;;;1.20;1.00;;;;;;;17.43;51.71;98391.08;104984;1260;74395;-45
2023/10/17 04:04:53;;;;;;;1.20;0.90;;;;;;;17.43;51.85;98394.55;105172;1262;65347;-45
2023/10/17 04:07:22;;;;;;;2.00;1.10;;;;;;;17.43;51.70;98394.34;105240;1260;72438;-45
2023/10/17 04:12:25;;;;;;;1.20;1.00;;;;;;;17.42;51.74;98392.73;105092;1261;61256;-46
2023/10/17 04:14:58;;;;;;;2.00;1.00;;;;;;;17.42;51.71;98392.71;104971;1267;74413;-46
2023/10/17 04:17:30;;;;;;;1.30;0.90;;;;;;;17.41;51.74;98394.02;105081;1264;65191;-46
2023/10/17 04:19:59;;;;;;;1.80;1.10;;;;;;;17.41;51.72;98397.10;104910;1260;72473;-46
2023/10/17 04:22:30;;;;;;;1.20;1.10;;;;;;;17.41;51.72;98398.19;105091;1265;61267;-47
2023/10/17 04:25:00;;;;;;;1.60;1.10;;;;;;;17.41;51.66;98399.88;104935;1261;61385;-46
2023/10/17 04:27:31;;;;;;;2.30;1.00;;;;;;;17.41;51.72;98411.95;104905;1270;75487;-47
2023/10/17 04:29:59;;;;;;;1.30;1.10;;;;;;;17.40;51.71;98415.18;104917;1261;67167;-46
2023/10/17 04:32:28;;;;;;;1.40;1.10;;;;;;;17.41;51.74;98417.11;105178;1261;72682;-46
2023/10/17 04:34:55;;;;;;;1.40;1.20;;;;;;;17.40;51.66;98419.95;108645;1260;60390;-45
2023/10/17 04:37:31;;;;;;;2.90;1.20;;;;;;;17.40;51.74;98421.14;105092;1261;61372;-44
2023/10/17 04:40:27;;;;;;;1.20;1.00;;;;;;;17.41;51.73;98424.69;105072;1260;74444;-45
2023/10/17 04:45:19;;;;;;;3.20;1.10;;;;;;;17.41;51.64;98428.04;105162;1262;71129;-44
2023/10/17 04:47:46;;;;;;;2.60;1.20;;;;;;;17.41;51.71;98433.61;104946;1265;61290;-46
2023/10/17 04:50:13;;;;;;;2.20;1.30;;;;;;;17.40;51.39;98438.47;105085;1261;61431;-46
2023/10/17 04:52:46;;;;;;;6.90;2.00;;;;;;;17.39;51.22;98439.58;105041;1261;74390;-44
2023/10/17 04:55:22;;;;;;;6.10;2.40;;;;;;;17.37;50.88;98440.73;105167;1265;66235;-43
2023/10/17 05:03:27;;;;;;;5.20;2.20;;;;;;;17.43;50.41;98452.79;108859;1260;60217;-44
2023/10/17 05:06:11;;;;;;;2.70;1.90;;;;;;;17.45;50.29;98458.45;108842;1260;74767;-44
2023/10/17 06:18:07;;;;;;;5.70;2.20;;;;;;;17.50;51.84;98528.86;105117;1265;66151;-41
2023/10/17 06:21:06;;;;;;;6.20;2.50;;;;;;;17.50;51.77;98530.41;105044;1261;73320;-41
2023/10/17 06:29:00;;;;;;;9.10;2.50;;;;;;;17.52;51.65;98531.59;105110;1261;75342;-43
2023/10/17 06:31:34;;;;;;;10.00;2.50;;;;;;;17.52;51.57;98529.35;105677;1261;66111;-42
2023/10/17 06:34:01;;;;;;;4.90;2.40;;;;;;;17.53;51.48;98534.40;104980;1261;73547;-40
2023/10/17 06:36:28;;;;;;;5.70;2.40;;;;;;;17.54;51.58;98530.10;105509;1264;61395;-42
2023/10/17 06:38:56;;;;;;;9.20;2.20;;;;;;;17.55;51.72;98534.49;105100;1260;61350;-42
2023/10/17 06:41:38;;;;;;;6.90;2.30;;;;;;;17.56;51.88;98538.73;104990;1261;75054;-40
2023/10/17 06:44:06;;;;;;;11.20;2.50;;;;;;;17.59;51.99;98541.41;105077;1264;65450;-43
2023/10/17 06:46:40;;;;;;;3.60;2.20;;;;;;;17.62;52.19;98546.73;105566;1260;71291;-42
2023/10/17 06:49:08;;;;;;;6.50;2.40;;;;;;;17.63;52.19;98547.94;104916;1267;61318;-41
2023/10/17 06:51:36;;;;;;;9.00;2.20;;;;;;;17.65;52.38;98545.22;105381;1261;61274;-42
2023/10/17 06:54:07;;;;;;;8.90;2.10;;;;;;;17.66;52.59;98546.90;105205;1264;74712;-43
2023/10/17 06:56:44;;;;;;;6.80;2.40;;;;;;;17.67;52.65;98548.27;105444;1260;68047;-41
2023/10/17 06:59:24;;;;;;;7.30;2.30;;;;;;;17.69;52.68;98547.82;105018;1261;73418;-42
2023/10/17 07:02:03;;;;;;;4.60;2.10;;;;;;;17.71;52.78;98555.23;105079;1265;61369;-41
2023/10/17 07:04:32;;;;;;;3.50;2.20;;;;;;;17.73;52.95;98558.80;105195;1261;61344;-39
2023/10/17 07:07:03;;;;;;;9.10;2.10;;;;;;;17.74;52.97;98560.42;104918;1265;74471;-42
2023/10/17 07:09:37;;;;;;;7.00;2.30;;;;;;;17.77;53.03;98562.53;104985;1262;66116;-42
2023/10/17 07:12:06;;;;;;;6.20;2.40;;;;;;;17.79;53.13;98568.04;104890;1260;71074;-42
2023/10/17 07:14:36;;;;;;;7.80;2.40;;;;;;;17.84;53.18;98567.54;108790;1260;60386;-42
2023/10/17 07:17:49;;;;;;;6.70;2.60;;;;;;;17.90;53.42;98570.27;104802;1260;61183;-43
2023/10/17 07:19:59;;;;;;;5.70;2.80;;;;;;;17.97;53.58;98569.73;104771;1261;73499;-41
2023/10/17 07:22:35;;;;;;;7.10;2.50;;;;;;;18.04;53.74;98570.77;104995;1260;66329;-40
2023/10/17 07:25:16;;;;;;;6.90;2.60;;;;;;;18.09;53.90;98573.17;105002;1262;73076;-41
2023/10/17 07:27:44;;;;;;;5.30;2.40;;;;;;;18.14;53.95;98570.11;104938;1264;61168;-39
2023/10/17 07:30:13;;;;;;;7.10;2.30;;;;;;;18.17;53.90;98572.65;106027;1264;61334;-41
2023/10/17 07:32:46;;;;;;;4.20;2.30;;;;;;;18.21;54.01;98571.79;105044;1261;73628;-40
2023/10/17 07:35:23;;;;;;;4.60;2.20;;;;;;;18.24;53.96;98574.63;104830;1265;64796;-40
2023/10/17 07:37:55;;;;;;;10.10;2.40;;;;;;;18.27;54.01;98576.98;104876;1260;72522;-41
2023/10/17 07:43:10;;;;;;;5.10;2.30;;;;;;;18.29;53.88;98574.30;105098;1265;61277;-43
2023/10/17 07:45:39;;;;;;;6.00;2.00;;;;;;;18.30;53.85;98577.73;104818;1260;74414;-42
2023/10/17 07:48:28;;;;;;;8.90;2.10;;;;;;;18.32;53.73;98579.52;105028;1265;65520;-42
2023/10/17 07:50:57;;;;;;;6.60;2.40;;;;;;;18.32;53.62;98578.45;104801;1261;72835;-40
2023/10/17 07:53:26;;;;;;;7.60;2.40;;;;;;;18.33;53.63;98581.75;104899;1262;61238;-39
2023/10/17 07:56:03;;;;;;;6.60;2.20;;;;;;;18.35;53.63;98582.81;104901;1262;61339;-40
2023/10/17 07:58:45;;;;;;;7.30;2.30;;;;;;;18.35;53.62;98582.52;104947;1264;74530;-39
2023/10/17 08:01:16;;;;;;;7.50;2.50;;;;;;;18.36;53.18;98583.95;104807;1265;64186;-40
2023/10/17 08:03:54;;;;;;;7.70;3.00;;;;;;;18.36;52.56;98582.39;105000;1264;73216;-39
2023/10/17 08:06:22;;;;;;;5.30;2.80;;;;;;;18.34;52.15;98584.98;105707;1264;61321;-39
2023/10/17 08:08:50;;;;;;;7.70;3.10;;;;;;;18.33;51.89;98586.77;104747;1259;61271;-39
2023/10/17 08:11:26;;;;;;;9.60;3.20;;;;;;;18.32;51.70;98585.89;104864;1262;74454;-41
2023/10/17 08:13:55;;;;;;;10.10;3.00;;;;;;;18.31;51.50;98583.98;104857;1265;65664;-40
2023/10/17 08:16:28;;;;;;;9.30;2.70;;;;;;;18.30;51.60;98586.65;104957;1265;73403;-41
2023/10/17 08:19:12;;;;;;;6.30;2.70;;;;;;;18.28;51.62;98585.48;104912;1266;61249;-39
2023/10/17 08:21:49;;;;;;;10.00;2.80;;;;;;;18.27;51.59;98583.84;105741;1261;61369;-40
2023/10/17 08:24:26;;;;;;;8.70;2.70;;;;;;;18.26;51.58;98587.45;104925;1261;74625;-42
2023/10/17 08:27:12;;;;;;;17.00;2.70;;;;;;;18.26;51.68;98586.58;106410;1261;65085;-37
2023/10/17 08:29:43;;;;;;;11.50;2.90;;;;;;;18.27;52.10;98588.92;104699;1261;72501;-38
2023/10/17 08:34:48;;;;;;;7.30;2.90;;;;;;;18.31;53.00;98583.13;104837;1259;61282;-40
2023/10/17 08:37:26;;;;;;;9.80;2.90;;;;;;;18.33;53.38;98581.23;105086;1262;73094;-40
2023/10/17 08:39:53;;;;;;;12.20;2.90;;;;;;;18.37;53.84;98582.08;104955;1262;65634;-39
2023/10/17 08:42:30;;;;;;;6.60;2.70;;;;;;;18.40;54.02;98581.80;104811;1260;73525;-39
2023/10/17 08:44:58;;;;;;;7.50;2.90;;;;;;;18.42;54.11;98586.38;104904;1265;61216;-39
2023/10/17 08:47:25;;;;;;;5.00;2.50;;;;;;;18.45;54.24;98585.98;105353;1261;61299;-39
2023/10/17 08:49:55;;;;;;;5.10;2.70;;;;;;;18.48;54.24;98589.98;104875;1262;212967;-40
2023/10/17 08:52:27;;;;;;;9.60;2.40;;;;;;;18.52;54.41;98592.00;105069;1265;66181;-39
2023/10/17 08:54:54;;;;;;;9.90;2.80;;;;;;;18.55;54.42;98591.55;104870;1260;72948;-38
2023/10/17 08:57:23;;;;;;;7.70;2.80;;;;;;;18.57;54.59;98593.80;104771;1262;61202;-39
2023/10/17 09:04:50;;;;;;;7.80;3.00;;;;;;;18.58;54.49;98594.73;104850;1261;66901;-38
2023/10/17 09:07:31;;;;;;;6.20;2.60;;;;;;;18.58;54.37;98595.72;104831;1261;72517;-37
2023/10/17 09:10:04;;;;;;;5.50;2.40;;;;;;;18.58;54.37;98596.20;105151;1264;61250;-39
2023/10/17 09:12:42;;;;;;;7.80;2.50;;;;;;;18.58;54.36;98600.16;105393;1259;61369;-39
2023/10/17 09:15:27;;;;;;;9.10;2.30;;;;;;;18.58;54.29;98594.86;104922;1265;74605;-38
2023/10/17 09:18:07;;;;;;;6.30;2.50;;;;;;;18.58;54.29;98597.14;104868;1265;65982;-38
2023/10/17 09:20:35;;;;;;;3.70;2.20;;;;;;;18.58;54.21;98593.98;105336;1262;72511;-38
2023/10/17 09:23:02;;;;;;;4.90;2.30;;;;;;;18.59;54.15;98589.42;104943;1264;61264;-38
2023/10/17 09:25:30;;;;;;;4.50;2.40;;;;;;;18.60;54.22;98594.02;104902;1262;61891;-42
2023/10/17 09:27:57;;;;;;;8.90;2.50;;;;;;;18.61;54.27;98589.85;105012;1261;74613;-40
2023/10/17 09:30:24;;;;;;;3.60;2.30;;;;;;;18.61;54.33;98584.67;105138;1265;67342;-40
2023/10/17 09:32:51;;;;;;;4.70;2.40;;;;;;;18.62;54.37;98583.34;104844;1262;73364;-40
2023/10/17 09:35:18;;;;;;;4.10;2.00;;;;;;;18.64;54.42;98580.21;104757;1262;61267;-40
2023/10/17 09:37:52;;;;;;;3.10;2.00;;;;;;;18.65;54.55;98581.02;104703;1267;61275;-40
2023/10/17 09:40:33;;;;;;;7.20;2.00;;;;;;;18.66;54.43;98577.89;106053;1262;75547;-40
2023/10/17 09:43:00;;;;;;;4.40;2.20;;;;;;;18.67;54.52;98577.15;105208;1265;65901;-40
2023/10/17 09:45:33;;;;;;;4.10;2.20;;;;;;;18.67;54.54;98578.56;106362;1265;73623;-40
2023/10/17 09:48:04;;;;;;;5.00;2.00;;;;;;;18.68;54.60;98576.88;104962;1261;61264;-42
2023/10/17 09:50:36;;;;;;;2.70;2.00;;;;;;;18.69;54.72;98577.46;108754;1260;61138;-42
2023/10/17 09:53:14;;;;;;;7.40;2.10;;;;;;;18.71;54.84;98577.08;105563;1262;75652;-41
2023/10/17 09:55:48;;;;;;;6.60;2.30;;;;;;;18.73;54.84;98575.39;104901;1261;65254;-41
2023/10/17 09:58:28;;;;;;;5.80;2.30;;;;;;;18.74;54.79;98572.55;105062;1261;73589;-42
2023/10/17 10:01:22;;;;;;;7.40;2.70;;;;;;;18.75;54.57;98569.79;104961;1262;61223;-41
2023/10/17 10:03:51;;;;;;;5.60;2.80;;;;;;;18.74;54.37;98570.02;105023;1262;61354;-41
2023/10/17 10:06:21;;;;;;;9.60;3.00;;;;;;;18.74;54.22;98570.38;105817;1262;73437;-41
2023/10/17 10:08:54;;;;;;;6.40;2.80;;;;;;;18.73;54.20;98566.07;107775;1264;64901;-42
2023/10/17 10:11:21;;;;;;;9.70;3.10;;;;;;;18.71;54.02;98559.09;104791;1264;72758;-44
2023/10/17 10:14:02;;;;;;;5.80;2.80;;;;;;;18.70;54.10;98560.75;106626;1265;59721;-44
2023/10/17 10:16:55;;;;;;;6.60;3.20;;;;;;;18.72;54.56;98556.27;105615;1262;61188;-37
2023/10/17 10:19:24;;;;;;;7.40;3.10;;;;;;;18.79;55.31;98548.63;105155;1262;74380;-41
2023/10/17 10:21:58;;;;;;;9.60;3.00;;;;;;;18.87;55.62;98547.61;105045;1267;66202;-42
2023/10/17 10:24:30;;;;;;;9.00;3.50;;;;;;;18.95;55.85;98547.16;105127;1260;72350;-40
2023/10/17 10:27:08;;;;;;;8.30;3.00;;;;;;;19.02;56.08;98545.96;104978;1265;61860;-37
2023/10/17 10:29:35;;;;;;;8.00;3.10;;;;;;;19.08;56.10;98542.08;104858;1262;61371;-39
2023/10/17 10:32:06;;;;;;;7.30;3.60;;;;;;;19.13;55.77;98545.59;105141;1264;74365;-41
2023/10/17 10:34:36;;;;;;;10.00;3.20;;;;;;;19.18;55.62;98544.17;104902;1260;67201;-42
2023/10/17 10:37:03;;;;;;;10.30;3.30;;;;;;;19.20;55.74;98539.91;105101;1262;73493;-46
2023/10/17 10:39:30;;;;;;;5.20;3.00;;;;;;;19.23;55.82;98538.55;105102;1265;61170;-41
2023/10/17 10:42:01;;;;;;;10.00;3.10;;;;;;;19.24;55.89;98538.28;105001;1261;61267;-41
2023/10/17 10:44:28;;;;;;;4.60;2.70;;;;;;;19.25;55.89;98532.73;105004;1262;74567;-42
2023/10/17 10:46:55;;;;;;;6.90;2.80;;;;;;;19.27;55.44;98534.41;105114;1261;67120;-42
2023/10/17 10:49:26;;;;;;;6.00;2.80;;;;;;;19.28;55.21;98533.29;105137;1262;73498;-46
2023/10/17 10:51:57;;;;;;;7.00;3.00;;;;;;;19.29;55.38;98526.13;104944;1261;61710;-44
2023/10/17 10:54:27;;;;;;;6.40;3.20;;;;;;;19.32;55.71;98529.42;105045;1262;61981;-46
2023/10/17 10:56:55;;;;;;;6.40;2.90;;;;;;;19.36;55.88;98526.00;104988;1263;74762;-45
2023/10/17 10:59:23;;;;;;;4.00;2.90;;;;;;;19.40;56.35;98521.96;105014;1262;67400;-48
2023/10/17 11:01:49;;;;;;;4.80;2.80;;;;;;;19.43;56.52;98524.19;104894;1261;73767;-51
2023/10/17 11:04:16;;;;;;;6.50;2.80;;;;;;;19.46;56.71;98523.20;105095;1265;61537;-46
2023/10/17 11:06:43;;;;;;;6.30;3.30;;;;;;;19.48;56.68;98521.48;104856;1262;61334;-46
2023/10/17 11:09:16;;;;;;;6.00;2.90;;;;;;;19.50;56.78;98521.64;105151;1265;74379;-45
2023/10/17 11:11:44;;;;;;;7.10;2.90;;;;;;;19.51;56.70;98527.41;105189;1264;66196;-45
2023/10/17 11:14:16;;;;;;;7.70;3.20;;;;;;;19.52;56.79;98524.19;104561;1265;71391;-47
2023/10/17 11:16:43;;;;;;;5.90;2.50;;;;;;;19.53;56.72;98521.27;105173;1265;61249;-47
2023/10/17 11:19:19;;;;;;;7.50;2.90;;;;;;;19.55;56.86;98523.10;105065;1261;61965;-48
2023/10/17 11:22:02;;;;;;;18.60;3.10;;;;;;;19.56;56.93;98522.40;104678;1262;75370;-50
2023/10/17 11:24:29;;;;;;;5.20;2.80;;;;;;;19.58;56.91;98516.39;105144;1265;66426;-49
2023/10/17 11:26:56;;;;;;;6.90;2.70;;;;;;;19.58;56.58;98514.86;106047;1262;72868;-50
2023/10/17 11:29:26;;;;;;;6.40;3.20;;;;;;;19.60;56.48;98514.45;104984;1267;61320;-47
2023/10/17 11:31:54;;;;;;;7.40;3.20;;;;;;;19.62;56.23;98515.98;104902;1262;61324;-52
2023/10/17 11:34:30;;;;;;;6.70;2.90;;;;;;;19.62;56.24;98511.80;104986;1263;75886;-49
2023/10/17 11:37:02;;;;;;;5.60;2.50;;;;;;;19.64;56.24;98511.70;104954;1265;64011;-51
2023/10/17 11:39:41;;;;;;;7.70;2.70;;;;;;;19.64;56.26;98515.38;104999;1262;72510;-45
2023/10/17 11:42:09;;;;;;;5.60;2.90;;;;;;;19.64;56.16;98512.10;106506;1264;61279;-48
2023/10/17 11:44:41;;;;;;;4.50;2.60;;;;;;;19.64;55.99;98513.20;104909;1261;61353;-46
2023/10/17 11:47:22;;;;;;;7.60;3.20;;;;;;;19.63;54.98;98515.23;105114;1261;75553;-48
2023/10/17 11:49:50;;;;;;;6.70;3.00;;;;;;;19.57;53.88;98517.67;105075;1264;67849;-46
2023/10/17 11:52:20;;;;;;;5.70;2.60;;;;;;;19.51;53.92;98520.66;104958;1262;72925;-45
2023/10/17 11:55:03;;;;;;;7.10;3.00;;;;;;;19.47;54.00;98520.29;105001;1262;61251;-45
2023/10/17 11:57:33;;;;;;;5.90;3.00;;;;;;;19.43;53.96;98517.13;105488;1263;61196;-45
2023/10/17 12:02:47;;;;;;;3.80;2.70;;;;;;;19.37;53.83;98519.39;105230;1262;64999;-47
2023/10/17 12:05:18;;;;;;;5.10;3.20;;;;;;;19.34;53.68;98520.55;104973;1262;72763;-48
2023/10/17 12:07:57;;;;;;;7.40;3.60;;;;;;;19.29;53.44;98516.59;104999;1265;61343;-47
2023/10/17 12:10:28;;;;;;;7.20;3.30;;;;;;;19.24;53.23;98519.58;105046;1263;61364;-46
2023/10/17 12:13:01;;;;;;;6.60;3.00;;;;;;;19.19;53.17;98516.37;104910;1264;75440;-48
2023/10/17 12:15:28;;;;;;;4.50;2.90;;;;;;;19.15;53.36;98510.58;104945;1265;67299;-47
2023/10/17 12:17:55;;;;;;;6.30;2.90;;;;;;;19.14;53.59;98509.23;105024;1263;72987;-47
2023/10/17 12:20:28;;;;;;;6.00;3.30;;;;;;;19.16;53.76;98507.04;104976;1265;61259;-45
2023/10/17 12:22:56;;;;;;;6.70;3.20;;;;;;;19.19;53.87;98510.14;104897;1262;61234;-46
2023/10/17 12:25:25;;;;;;;4.80;3.00;;;;;;;19.19;53.97;98512.51;104993;1263;74492;-47
2023/10/17 12:27:56;;;;;;;4.40;3.00;;;;;;;19.20;53.96;98509.02;105089;1265;65846;-47
2023/10/17 12:30:27;;;;;;;8.80;3.20;;;;;;;19.19;53.92;98512.48;105016;1262;73299;-45
2023/10/17 12:32:57;;;;;;;8.90;3.20;;;;;;;19.17;53.72;98509.95;105046;1265;61267;-44
2023/10/17 12:35:27;;;;;;;7.50;3.60;;;;;;;19.15;53.31;98504.52;105741;1261;61250;-44
2023/10/17 12:38:14;;;;;;;5.60;3.10;;;;;;;19.11;53.06;98504.02;105424;1264;75443;-39
2023/10/17 12:40:42;;;;;;;5.60;2.90;;;;;;;19.09;52.93;98502.06;105197;1265;66855;-44
2023/10/17 12:43:11;;;;;;;8.00;3.10;;;;;;;19.05;52.74;98500.23;108524;1262;71802;-42
2023/10/17 12:45:38;;;;;;;8.00;3.10;;;;;;;19.03;52.85;98500.86;104994;1265;61222;-45
2023/10/17 12:48:10;;;;;;;6.70;3.20;;;;;;;19.01;52.68;98495.98;104887;1262;61251;-47
2023/10/17 12:50:46;;;;;;;6.50;3.50;;;;;;;18.98;52.78;98496.79;104840;1262;75552;-45
2023/10/17 12:53:13;;;;;;;5.60;2.90;;;;;;;18.96;52.85;98495.52;105041;1265;67169;-45
2023/10/17 12:55:43;;;;;;;5.20;2.70;;;;;;;18.94;52.88;98495.77;105056;1265;73612;-48
2023/10/17 12:58:18;;;;;;;5.60;3.20;;;;;;;18.92;52.97;98497.42;105227;1265;61809;-46
2023/10/17 13:00:48;;;;;;;;;;;;;;;18.90;52.93;98498.58;105213;1262;61241;-46
2023/10/17 13:03:15;;;;;;;6.50;2.70;;;;;;;18.88;52.96;98499.17;105677;1260;74866;-46
2023/10/17 13:05:43;;;;;;;4.90;2.80;;;;;;;18.84;53.08;98497.18;105075;1265;66398;-46
2023/10/17 13:08:10;;;;;;;4.30;3.10;;;;;;;18.82;53.05;98499.75;105501;1259;72309;-46
2023/10/17 13:10:37;;;;;;;5.70;3.10;;;;;;;18.81;53.06;98498.71;104930;1265;61252;-45
2023/10/17 13:13:04;;;;;;;5.20;3.10;;;;;;;18.80;52.94;98496.88;104993;1261;61335;-48
2023/10/17 13:15:31;;;;;;;8.10;3.20;;;;;;;18.78;52.92;98496.41;104914;1274;75666;-46
2023/10/17 13:18:03;;;;;;;11.00;2.90;;;;;;;18.77;53.05;98493.89;104920;1265;65802;-48
2023/10/17 13:20:32;;;;;;;7.10;2.80;;;;;;;18.74;53.02;98491.87;105173;1265;72635;-45
2023/10/17 13:23:19;;;;;;;3.60;2.40;;;;;;;18.72;53.16;98490.77;104958;1262;61259;-48
2023/10/17 13:25:46;;;;;;;5.40;3.00;;;;;;;18.70;53.29;98485.74;105033;1266;62074;-47
2023/10/17 13:28:13;;;;;;;7.10;2.50;;;;;;;18.69;53.35;98487.09;104978;1267;73584;-47